createdAt,value
2019-02-20T00:00:00.680Z,5.88
2019-02-20T00:01:00.641Z,5.87
2019-02-20T00:02:00.626Z,5.84
2019-02-20T00:03:00.582Z,5.84
2019-02-20T00:04:00.562Z,5.84
2019-02-20T00:05:00.572Z,5.84
2019-02-20T00:06:00.536Z,5.83
2019-02-20T00:07:00.530Z,5.84
2019-02-20T00:08:00.495Z,5.83
2019-02-20T00:09:00.488Z,5.84
2019-02-20T00:10:00.466Z,5.84
2019-02-20T00:11:00.444Z,5.83
2019-02-20T00:12:00.569Z,5.87
2019-02-20T00:13:00.405Z,5.90
2019-02-20T00:14:00.386Z,5.88
2019-02-20T00:15:00.365Z,5.87
2019-02-20T00:16:00.342Z,5.84
2019-02-20T00:17:00.325Z,5.84
2019-02-20T00:18:00.452Z,5.81
2019-02-20T00:19:00.487Z,5.81
2019-02-20T00:20:00.383Z,5.80
2019-02-20T00:21:00.257Z,5.81
2019-02-20T00:22:00.226Z,5.81
2019-02-20T00:23:00.212Z,5.84
2019-02-20T00:24:00.226Z,5.84
2019-02-20T00:25:00.333Z,5.84
2019-02-20T00:26:00.172Z,5.83
2019-02-20T00:27:00.152Z,5.83
2019-02-20T00:28:00.132Z,5.81
2019-02-20T00:29:00.132Z,5.83
2019-02-20T00:30:00.096Z,5.81
2019-02-20T00:31:00.075Z,5.81
2019-02-20T00:32:00.051Z,5.81
2019-02-20T00:33:00.038Z,5.80
2019-02-20T00:34:00.050Z,5.79
2019-02-20T00:35:00.010Z,5.79
2019-02-20T00:36:00.011Z,5.77
2019-02-20T00:36:59.951Z,5.77
2019-02-20T00:37:59.936Z,5.77
2019-02-20T00:38:59.928Z,5.77
2019-02-20T00:39:59.911Z,5.77
2019-02-20T00:40:59.909Z,5.77
2019-02-20T00:41:59.875Z,5.77
2019-02-20T00:42:59.981Z,5.79
2019-02-20T00:43:59.832Z,5.80
2019-02-20T00:44:59.826Z,5.79
2019-02-20T00:45:59.800Z,5.80
2019-02-20T00:46:59.778Z,5.80
2019-02-20T00:47:59.765Z,5.79
2019-02-20T00:48:59.761Z,5.79
2019-02-20T00:49:59.720Z,5.79
2019-02-20T00:50:59.711Z,5.80
2019-02-20T00:51:59.690Z,5.79
2019-02-20T00:52:59.677Z,5.80
2019-02-20T00:53:59.645Z,5.80
2019-02-20T00:54:59.650Z,5.81
2019-02-20T00:55:59.613Z,5.83
2019-02-20T00:56:59.590Z,5.81
2019-02-20T00:57:59.569Z,5.83
2019-02-20T00:58:59.601Z,5.83
2019-02-20T00:59:59.532Z,5.84
2019-02-20T01:00:59.556Z,5.84
2019-02-20T01:01:59.514Z,5.84
2019-02-20T01:02:59.488Z,5.84
2019-02-20T01:03:59.505Z,5.84
2019-02-20T01:04:59.440Z,5.84
2019-02-20T01:05:59.465Z,5.87
2019-02-20T01:06:59.411Z,5.87
2019-02-20T01:07:59.396Z,5.84
2019-02-20T01:08:59.407Z,5.83
2019-02-20T01:09:59.360Z,5.81
2019-02-20T01:10:59.385Z,5.83
2019-02-20T01:11:59.322Z,5.83
2019-02-20T01:12:59.311Z,5.81
2019-02-20T01:13:59.287Z,5.81
2019-02-20T01:14:59.262Z,5.80
2019-02-20T01:15:59.266Z,5.79
2019-02-20T01:16:59.220Z,5.77
2019-02-20T01:17:59.207Z,5.79
2019-02-20T01:18:59.200Z,5.77
2019-02-20T01:19:59.171Z,5.77
2019-02-20T01:20:59.148Z,5.76
2019-02-20T01:21:59.133Z,5.76
2019-02-20T01:23:00.160Z,5.74
2019-02-20T01:23:59.087Z,5.73
2019-02-20T01:24:59.074Z,5.73
2019-02-20T01:25:59.070Z,5.72
2019-02-20T01:26:59.046Z,5.69
2019-02-20T01:27:59.100Z,5.67
2019-02-20T01:28:58.995Z,5.65
2019-02-20T01:29:58.991Z,5.62
2019-02-20T01:30:58.966Z,5.59
2019-02-20T01:31:58.941Z,5.56
2019-02-20T01:32:58.928Z,5.54
2019-02-20T01:33:58.953Z,5.49
2019-02-20T01:34:58.890Z,5.46
2019-02-20T01:35:58.876Z,5.44
2019-02-20T01:36:58.862Z,5.40
2019-02-20T01:37:58.827Z,5.40
2019-02-20T01:38:58.825Z,5.40
2019-02-20T01:39:58.802Z,5.40
2019-02-20T01:40:58.775Z,5.43
2019-02-20T01:41:58.773Z,5.43
2019-02-20T01:42:58.762Z,5.43
2019-02-20T01:43:58.734Z,5.43
2019-02-20T01:44:58.735Z,5.47
2019-02-20T01:45:58.697Z,5.49
2019-02-20T01:46:58.675Z,5.49
2019-02-20T01:47:58.653Z,5.49
2019-02-20T01:48:58.639Z,5.49
2019-02-20T01:49:58.622Z,5.49
2019-02-20T01:50:58.604Z,5.52
2019-02-20T01:51:58.577Z,5.52
2019-02-20T01:52:58.590Z,5.55
2019-02-20T01:53:58.548Z,5.58
2019-02-20T01:54:58.528Z,5.59
2019-02-20T01:55:58.657Z,5.58
2019-02-20T01:56:58.480Z,5.58
2019-02-20T01:57:58.470Z,5.59
2019-02-20T01:58:58.458Z,5.59
2019-02-20T01:59:58.438Z,5.62
2019-02-20T02:00:58.416Z,5.62
2019-02-20T02:01:58.550Z,5.62
2019-02-20T02:02:58.372Z,5.61
2019-02-20T02:03:58.355Z,5.61
2019-02-20T02:04:58.335Z,5.62
2019-02-20T02:05:58.330Z,5.61
2019-02-20T02:06:58.315Z,5.62
2019-02-20T02:07:58.291Z,5.59
2019-02-20T02:08:59.661Z,5.59
2019-02-20T02:09:58.240Z,5.61
2019-02-20T02:10:58.260Z,5.64
2019-02-20T02:11:58.280Z,5.62
2019-02-20T02:12:58.202Z,5.62
2019-02-20T02:13:58.210Z,5.62
2019-02-20T02:14:58.163Z,5.62
2019-02-20T02:15:58.143Z,5.62
2019-02-20T02:16:58.125Z,5.64
2019-02-20T02:17:58.106Z,5.64
2019-02-20T02:18:58.153Z,5.65
2019-02-20T02:19:58.059Z,5.64
2019-02-20T02:20:58.050Z,5.62
2019-02-20T02:21:58.030Z,5.62
2019-02-20T02:22:58.012Z,5.62
2019-02-20T02:23:57.988Z,5.59
2019-02-20T02:24:57.972Z,5.58
2019-02-20T02:25:57.946Z,5.58
2019-02-20T02:26:57.931Z,5.56
2019-02-20T02:27:57.918Z,5.56
2019-02-20T02:28:57.899Z,5.56
2019-02-20T02:29:57.885Z,5.58
2019-02-20T02:30:57.859Z,5.56
2019-02-20T02:31:57.854Z,5.56
2019-02-20T02:32:57.824Z,5.56
2019-02-20T02:33:57.812Z,5.54
2019-02-20T02:34:57.796Z,5.51
2019-02-20T02:35:57.799Z,5.49
2019-02-20T02:36:57.846Z,5.49
2019-02-20T02:37:57.722Z,5.51
2019-02-20T02:38:57.708Z,5.49
2019-02-20T02:39:57.701Z,5.49
2019-02-20T02:40:57.673Z,5.49
2019-02-20T02:41:57.702Z,5.47
2019-02-20T02:42:57.630Z,5.47
2019-02-20T02:43:57.654Z,5.46
2019-02-20T02:44:57.597Z,5.44
2019-02-20T02:45:57.573Z,5.46
2019-02-20T02:46:57.566Z,5.46
2019-02-20T02:47:57.550Z,5.46
2019-02-20T02:48:57.565Z,5.46
2019-02-20T02:49:57.517Z,5.44
2019-02-20T02:50:57.520Z,5.43
2019-02-20T02:51:57.475Z,5.43
2019-02-20T02:52:57.453Z,5.41
2019-02-20T02:53:57.464Z,5.40
2019-02-20T02:54:57.412Z,5.40
2019-02-20T02:55:57.419Z,5.40
2019-02-20T02:56:57.390Z,5.38
2019-02-20T02:57:57.353Z,5.38
2019-02-20T02:58:57.376Z,5.37
2019-02-20T02:59:57.359Z,5.37
2019-02-20T03:00:57.326Z,5.36
2019-02-20T03:01:57.287Z,5.34
2019-02-20T03:02:57.274Z,5.33
2019-02-20T03:03:57.247Z,5.33
2019-02-20T03:04:57.223Z,5.31
2019-02-20T03:05:57.297Z,5.31
2019-02-20T03:06:57.234Z,5.31
2019-02-20T03:07:57.177Z,5.28
2019-02-20T03:08:57.152Z,5.28
2019-02-20T03:09:57.132Z,5.28
2019-02-20T03:10:57.129Z,5.28
2019-02-20T03:11:57.117Z,5.26
2019-02-20T03:12:57.077Z,5.26
2019-02-20T03:13:57.070Z,5.28
2019-02-20T03:14:57.047Z,5.28
2019-02-20T03:15:57.030Z,5.31
2019-02-20T03:16:57.042Z,5.29
2019-02-20T03:17:57.050Z,5.28
2019-02-20T03:18:56.972Z,5.28
2019-02-20T03:19:56.945Z,5.26
2019-02-20T03:20:56.937Z,5.25
2019-02-20T03:21:56.921Z,5.25
2019-02-20T03:22:56.894Z,5.25
2019-02-20T03:23:56.904Z,5.23
2019-02-20T03:24:56.866Z,5.25
2019-02-20T03:25:56.843Z,5.23
2019-02-20T03:26:56.831Z,5.23
2019-02-20T03:27:56.829Z,5.22
2019-02-20T03:28:56.790Z,5.20
2019-02-20T03:29:56.761Z,5.19
2019-02-20T03:30:56.752Z,5.18
2019-02-20T03:31:56.739Z,5.16
2019-02-20T03:32:56.743Z,5.16
2019-02-20T03:33:56.745Z,5.18
2019-02-20T03:34:56.674Z,5.16
2019-02-20T03:35:56.664Z,5.16
2019-02-20T03:36:56.632Z,5.16
2019-02-20T03:37:56.622Z,5.16
2019-02-20T03:38:56.624Z,5.13
2019-02-20T03:39:56.638Z,5.12
2019-02-20T03:40:56.575Z,5.12
2019-02-20T03:41:56.567Z,5.12
2019-02-20T03:42:56.534Z,5.10
2019-02-20T03:43:56.500Z,5.10
2019-02-20T03:44:56.491Z,5.10
2019-02-20T03:45:56.528Z,5.10
2019-02-20T03:46:56.459Z,5.08
2019-02-20T03:47:56.437Z,5.05
2019-02-20T03:48:56.415Z,5.02
2019-02-20T03:49:56.399Z,5.00
2019-02-20T03:50:56.380Z,4.98
2019-02-20T03:51:56.363Z,4.98
2019-02-20T03:52:56.329Z,4.97
2019-02-20T03:53:56.325Z,4.97
2019-02-20T03:54:56.306Z,4.97
2019-02-20T03:55:56.284Z,4.95
2019-02-20T03:56:56.281Z,4.95
2019-02-20T03:57:56.256Z,4.95
2019-02-20T03:58:56.220Z,4.94
2019-02-20T03:59:56.215Z,4.95
2019-02-20T04:00:56.193Z,4.97
2019-02-20T04:01:56.176Z,4.94
2019-02-20T04:02:56.189Z,4.95
2019-02-20T04:03:56.139Z,4.95
2019-02-20T04:04:56.114Z,4.97
2019-02-20T04:05:56.090Z,4.98
2019-02-20T04:06:56.081Z,4.98
2019-02-20T04:07:56.088Z,4.98
2019-02-20T04:08:56.035Z,5.00
2019-02-20T04:09:56.036Z,5.00
2019-02-20T04:10:56.004Z,5.00
2019-02-20T04:11:55.976Z,5.00
2019-02-20T04:12:56.003Z,5.00
2019-02-20T04:13:55.944Z,5.01
2019-02-20T04:14:55.926Z,5.01
2019-02-20T04:15:55.915Z,5.02
2019-02-20T04:16:55.885Z,5.04
2019-02-20T04:17:55.870Z,5.04
2019-02-20T04:18:55.878Z,5.05
2019-02-20T04:19:55.841Z,5.04
2019-02-20T04:20:55.868Z,5.05
2019-02-20T04:21:55.834Z,5.07
2019-02-20T04:22:55.790Z,5.07
2019-02-20T04:24:02.470Z,5.07
2019-02-20T04:24:55.746Z,5.08
2019-02-20T04:25:55.728Z,5.08
2019-02-20T04:26:55.709Z,5.12
2019-02-20T04:27:55.691Z,5.16
2019-02-20T04:28:55.678Z,5.16
2019-02-20T04:29:55.639Z,5.18
2019-02-20T04:30:55.628Z,5.19
2019-02-20T04:31:55.655Z,5.19
2019-02-20T04:32:55.598Z,5.18
2019-02-20T04:33:55.571Z,5.19
2019-02-20T04:34:55.548Z,5.18
2019-02-20T04:35:55.559Z,5.16
2019-02-20T04:36:55.516Z,5.18
2019-02-20T04:37:55.514Z,5.16
2019-02-20T04:38:55.476Z,5.16
2019-02-20T04:39:55.469Z,5.16
2019-02-20T04:40:55.510Z,5.18
2019-02-20T04:41:55.429Z,5.18
2019-02-20T04:42:55.410Z,5.18
2019-02-20T04:43:55.384Z,5.16
2019-02-20T04:44:55.372Z,5.16
2019-02-20T04:45:55.342Z,5.15
2019-02-20T04:46:55.341Z,5.15
2019-02-20T04:47:55.314Z,5.15
2019-02-20T04:48:55.292Z,5.13
2019-02-20T04:49:55.279Z,5.12
2019-02-20T04:50:55.255Z,5.10
2019-02-20T04:51:55.290Z,5.12
2019-02-20T04:52:55.214Z,5.12
2019-02-20T04:53:55.196Z,5.13
2019-02-20T04:54:55.178Z,5.15
2019-02-20T04:55:55.160Z,5.15
2019-02-20T04:56:55.143Z,5.13
2019-02-20T04:57:55.266Z,5.15
2019-02-20T04:58:55.115Z,5.13
2019-02-20T04:59:55.101Z,5.13
2019-02-20T05:00:55.075Z,5.12
2019-02-20T05:01:55.044Z,5.10
2019-02-20T05:02:55.031Z,5.12
2019-02-20T05:03:55.039Z,5.12
2019-02-20T05:04:55.011Z,5.10
2019-02-20T05:05:55.001Z,5.08
2019-02-20T05:06:54.953Z,5.07
2019-02-20T05:07:54.936Z,5.05
2019-02-20T05:08:54.947Z,5.05
2019-02-20T05:09:54.902Z,5.04
2019-02-20T05:10:54.878Z,5.04
2019-02-20T05:11:54.867Z,5.02
2019-02-20T05:12:54.850Z,5.02
2019-02-20T05:13:54.853Z,5.02
2019-02-20T05:14:54.846Z,5.00
2019-02-20T05:15:54.792Z,4.98
2019-02-20T05:16:54.782Z,4.98
2019-02-20T05:17:54.751Z,4.97
2019-02-20T05:18:54.740Z,4.95
2019-02-20T05:19:54.727Z,4.94
2019-02-20T05:20:54.742Z,4.90
2019-02-20T05:21:54.684Z,4.89
2019-02-20T05:22:54.657Z,4.86
2019-02-20T05:23:54.645Z,4.87
2019-02-20T05:24:54.645Z,4.89
2019-02-20T05:25:54.625Z,4.89
2019-02-20T05:26:54.591Z,4.86
2019-02-20T05:27:54.572Z,4.89
2019-02-20T05:28:54.554Z,4.89
2019-02-20T05:29:54.571Z,4.90
2019-02-20T05:30:54.512Z,4.92
2019-02-20T05:31:54.505Z,4.92
2019-02-20T05:32:54.476Z,4.94
2019-02-20T05:33:54.464Z,4.94
2019-02-20T05:34:54.597Z,4.94
2019-02-20T05:35:54.425Z,4.94
2019-02-20T05:36:54.413Z,4.92
2019-02-20T05:37:54.396Z,4.94
2019-02-20T05:38:54.361Z,4.92
2019-02-20T05:39:54.357Z,4.92
2019-02-20T05:40:54.386Z,4.92
2019-02-20T05:41:54.312Z,4.90
2019-02-20T05:42:54.295Z,4.90
2019-02-20T05:43:54.276Z,4.87
2019-02-20T05:44:54.260Z,4.87
2019-02-20T05:45:54.255Z,4.84
2019-02-20T05:46:54.246Z,4.84
2019-02-20T05:47:54.200Z,4.83
2019-02-20T05:48:54.169Z,4.82
2019-02-20T05:49:54.155Z,4.83
2019-02-20T05:50:54.169Z,4.82
2019-02-20T05:51:54.135Z,4.79
2019-02-20T05:52:54.100Z,4.79
2019-02-20T05:53:54.100Z,4.79
2019-02-20T05:54:54.073Z,4.76
2019-02-20T05:55:54.052Z,4.75
2019-02-20T05:56:54.038Z,4.74
2019-02-20T05:57:54.000Z,4.70
2019-02-20T05:58:54.034Z,4.68
2019-02-20T05:59:54.005Z,4.68
2019-02-20T06:00:53.956Z,4.68
2019-02-20T06:01:53.955Z,4.67
2019-02-20T06:02:53.942Z,4.67
2019-02-20T06:03:53.904Z,4.66
2019-02-20T06:04:53.886Z,4.67
2019-02-20T06:05:53.876Z,4.67
2019-02-20T06:06:53.835Z,4.68
2019-02-20T06:07:53.897Z,4.70
2019-02-20T06:08:53.808Z,4.71
2019-02-20T06:09:53.784Z,4.71
2019-02-20T06:10:53.773Z,4.75
2019-02-20T06:11:53.737Z,4.76
2019-02-20T06:12:53.734Z,4.76
2019-02-20T06:13:53.715Z,4.76
2019-02-20T06:14:53.699Z,4.76
2019-02-20T06:15:53.675Z,4.76
2019-02-20T06:16:53.655Z,4.78
2019-02-20T06:17:53.630Z,4.78
2019-02-20T06:18:53.651Z,4.76
2019-02-20T06:19:53.596Z,4.78
2019-02-20T06:20:53.608Z,4.78
2019-02-20T06:21:53.588Z,4.78
2019-02-20T06:22:53.544Z,4.78
2019-02-20T06:23:53.511Z,4.78
2019-02-20T06:24:53.569Z,4.79
2019-02-20T06:25:53.478Z,4.82
2019-02-20T06:26:53.466Z,4.86
2019-02-20T06:27:53.450Z,4.84
2019-02-20T06:28:53.437Z,4.84
2019-02-20T06:29:53.412Z,4.86
2019-02-20T06:30:53.535Z,4.86
2019-02-20T06:31:53.375Z,4.84
2019-02-20T06:32:53.354Z,4.84
2019-02-20T06:33:53.337Z,4.84
2019-02-20T06:34:53.304Z,4.83
2019-02-20T06:35:53.303Z,4.84
2019-02-20T06:36:53.286Z,4.84
2019-02-20T06:37:53.291Z,4.83
2019-02-20T06:38:53.232Z,4.84
2019-02-20T06:39:53.210Z,4.87
2019-02-20T06:40:53.193Z,4.87
2019-02-20T06:41:53.312Z,4.90
2019-02-20T06:42:53.157Z,4.92
2019-02-20T06:43:53.143Z,4.94
2019-02-20T06:44:53.129Z,4.94
2019-02-20T06:45:53.105Z,4.92
2019-02-20T06:46:53.098Z,4.89
2019-02-20T06:47:53.106Z,4.89
2019-02-20T06:48:53.065Z,4.89
2019-02-20T06:49:53.025Z,4.87
2019-02-20T06:50:53.023Z,4.84
2019-02-20T06:51:53.004Z,4.84
2019-02-20T06:52:53.006Z,4.82
2019-02-20T06:53:52.971Z,4.79
2019-02-20T06:54:54.212Z,4.76
2019-02-20T06:55:52.923Z,4.76
2019-02-20T06:56:52.898Z,4.76
2019-02-20T06:57:52.879Z,4.74
2019-02-20T06:58:52.996Z,4.75
2019-02-20T06:59:52.849Z,4.75
2019-02-20T07:00:52.827Z,4.78
2019-02-20T07:01:52.822Z,4.78
2019-02-20T07:02:52.783Z,4.79
2019-02-20T07:03:52.761Z,4.83
2019-02-20T07:04:52.785Z,4.84
2019-02-20T07:05:52.726Z,4.87
2019-02-20T07:06:52.711Z,4.89
2019-02-20T07:07:52.685Z,4.90
2019-02-20T07:08:52.679Z,4.92
2019-02-20T07:09:52.657Z,4.92
2019-02-20T07:10:52.641Z,4.95
2019-02-20T07:11:52.618Z,4.98
2019-02-20T07:12:52.594Z,5.00
2019-02-20T07:13:52.584Z,5.02
2019-02-20T07:14:52.581Z,5.04
2019-02-20T07:15:52.536Z,5.05
2019-02-20T07:16:52.552Z,5.07
2019-02-20T07:17:52.509Z,5.10
2019-02-20T07:18:52.489Z,5.12
2019-02-20T07:19:52.469Z,5.13
2019-02-20T07:20:52.453Z,5.15
2019-02-20T07:21:52.458Z,5.15
2019-02-20T07:22:52.450Z,5.15
2019-02-20T07:23:52.389Z,5.16
2019-02-20T07:24:52.385Z,5.18
2019-02-20T07:25:52.364Z,5.20
2019-02-20T07:26:52.330Z,5.22
2019-02-20T07:27:52.323Z,5.20
2019-02-20T07:28:52.300Z,5.20
2019-02-20T07:29:52.273Z,5.23
2019-02-20T07:30:52.254Z,5.25
2019-02-20T07:31:52.252Z,5.25
2019-02-20T07:32:52.256Z,5.25
2019-02-20T07:33:52.218Z,5.26
2019-02-20T07:34:52.190Z,5.29
2019-02-20T07:35:52.197Z,5.31
2019-02-20T07:36:52.154Z,5.31
2019-02-20T07:37:52.158Z,5.34
2019-02-20T07:38:52.112Z,5.34
2019-02-20T07:39:52.096Z,5.34
2019-02-20T07:40:52.078Z,5.33
2019-02-20T07:41:52.061Z,5.34
2019-02-20T07:42:52.059Z,5.36
2019-02-20T07:43:52.158Z,5.36
2019-02-20T07:44:52.005Z,5.37
2019-02-20T07:45:51.987Z,5.37
2019-02-20T07:46:51.975Z,5.38
2019-02-20T07:47:51.935Z,5.38
2019-02-20T07:48:51.916Z,5.37
2019-02-20T07:49:51.954Z,5.40
2019-02-20T07:50:51.888Z,5.43
2019-02-20T07:51:51.858Z,5.44
2019-02-20T07:52:51.838Z,5.43
2019-02-20T07:53:51.823Z,5.44
2019-02-20T07:54:51.821Z,5.44
2019-02-20T07:55:51.803Z,5.44
2019-02-20T07:56:51.778Z,5.44
2019-02-20T07:57:51.765Z,5.46
2019-02-20T07:58:51.747Z,5.46
2019-02-20T07:59:51.747Z,5.49
2019-02-20T08:00:51.690Z,5.49
2019-02-20T08:01:51.685Z,5.46
2019-02-20T08:02:51.656Z,5.47
2019-02-20T08:03:51.655Z,5.49
2019-02-20T08:04:51.673Z,5.49
2019-02-20T08:05:51.608Z,5.51
2019-02-20T08:06:51.585Z,5.52
2019-02-20T08:07:51.569Z,5.54
2019-02-20T08:08:51.543Z,5.56
2019-02-20T08:09:51.540Z,5.59
2019-02-20T08:10:51.534Z,5.61
2019-02-20T08:11:51.555Z,5.65
2019-02-20T08:12:51.774Z,5.65
2019-02-20T08:13:51.450Z,5.70
2019-02-20T08:14:51.714Z,5.73
2019-02-20T08:15:51.568Z,5.77
2019-02-20T08:16:52.565Z,5.83
2019-02-20T08:17:51.397Z,5.84
2019-02-20T08:18:51.369Z,5.88
2019-02-20T08:19:51.334Z,5.90
2019-02-20T08:20:51.348Z,5.92
2019-02-20T08:21:51.341Z,5.95
2019-02-20T08:22:51.293Z,5.97
2019-02-20T08:23:51.275Z,5.98
2019-02-20T08:24:51.254Z,5.99
2019-02-20T08:25:51.278Z,6.05
2019-02-20T08:26:51.210Z,6.07
2019-02-20T08:27:51.194Z,6.07
2019-02-20T08:28:51.178Z,6.07
2019-02-20T08:29:51.167Z,6.09
2019-02-20T08:30:51.149Z,6.10
2019-02-20T08:31:51.152Z,6.12
2019-02-20T08:32:51.099Z,6.13
2019-02-20T08:33:51.139Z,6.12
2019-02-20T08:34:51.073Z,6.10
2019-02-20T08:35:51.052Z,6.13
2019-02-20T08:36:51.056Z,6.12
2019-02-20T08:37:51.016Z,6.13
2019-02-20T08:38:51.017Z,6.13
2019-02-20T08:39:51.006Z,6.15
2019-02-20T08:40:50.963Z,6.16
2019-02-20T08:41:51.083Z,6.17
2019-02-20T08:42:51.065Z,6.19
2019-02-20T08:43:50.937Z,6.19
2019-02-20T08:44:50.897Z,6.22
2019-02-20T08:45:50.876Z,6.25
2019-02-20T08:46:51.229Z,6.28
2019-02-20T08:47:51.070Z,6.29
2019-02-20T08:48:50.812Z,6.31
2019-02-20T08:49:50.814Z,6.32
2019-02-20T08:50:50.790Z,6.32
2019-02-20T08:51:50.766Z,6.32
2019-02-20T08:52:50.733Z,6.36
2019-02-20T08:53:50.785Z,6.39
2019-02-20T08:54:50.710Z,6.39
2019-02-20T08:55:50.680Z,6.39
2019-02-20T08:56:50.667Z,6.41
2019-02-20T08:57:50.650Z,6.39
2019-02-20T08:58:50.642Z,6.41
2019-02-20T08:59:51.781Z,6.43
2019-02-20T09:00:50.604Z,6.44
2019-02-20T09:01:50.573Z,6.46
2019-02-20T09:02:50.567Z,6.43
2019-02-20T09:03:50.574Z,6.41
2019-02-20T09:04:50.530Z,6.44
2019-02-20T09:05:50.509Z,6.46
2019-02-20T09:06:50.487Z,6.49
2019-02-20T09:07:50.467Z,6.50
2019-02-20T09:08:50.599Z,6.53
2019-02-20T09:09:50.437Z,6.56
2019-02-20T09:10:50.414Z,6.60
2019-02-20T09:11:50.417Z,6.56
2019-02-20T09:12:50.383Z,6.57
2019-02-20T09:13:50.373Z,6.59
2019-02-20T09:14:50.392Z,6.59
2019-02-20T09:15:50.328Z,6.59
2019-02-20T09:16:50.303Z,6.60
2019-02-20T09:17:50.283Z,6.62
2019-02-20T09:18:50.279Z,6.67
2019-02-20T09:19:50.285Z,6.70
2019-02-20T09:20:50.249Z,6.72
2019-02-20T09:21:50.226Z,6.72
2019-02-20T09:22:50.194Z,6.74
2019-02-20T09:23:50.286Z,6.75
2019-02-20T09:24:50.155Z,6.77
2019-02-20T09:25:50.153Z,6.78
2019-02-20T09:26:50.141Z,6.78
2019-02-20T09:27:50.122Z,6.80
2019-02-20T09:28:50.129Z,6.82
2019-02-20T09:29:50.105Z,6.80
2019-02-20T09:30:50.064Z,6.77
2019-02-20T09:31:50.048Z,6.77
2019-02-20T09:32:50.019Z,6.77
2019-02-20T09:33:50.007Z,6.82
2019-02-20T09:34:50.026Z,6.83
2019-02-20T09:35:49.969Z,6.86
2019-02-20T09:36:49.949Z,6.87
2019-02-20T09:37:49.929Z,6.92
2019-02-20T09:38:49.951Z,7.00
2019-02-20T09:39:49.888Z,7.05
2019-02-20T09:40:49.886Z,7.13
2019-02-20T09:41:49.872Z,7.21
2019-02-20T09:42:49.842Z,7.28
2019-02-20T09:43:49.863Z,7.31
2019-02-20T09:44:49.803Z,7.31
2019-02-20T09:45:49.794Z,7.33
2019-02-20T09:46:49.765Z,7.32
2019-02-20T09:47:49.785Z,7.29
2019-02-20T09:48:49.731Z,7.31
2019-02-20T09:49:49.732Z,7.36
2019-02-20T09:50:49.702Z,7.37
2019-02-20T09:51:49.684Z,7.39
2019-02-20T09:52:52.245Z,7.37
2019-02-20T09:53:49.706Z,7.36
2019-02-20T09:54:49.645Z,7.36
2019-02-20T09:55:51.839Z,7.37
2019-02-20T09:56:49.593Z,7.40
2019-02-20T09:57:49.592Z,7.41
2019-02-20T09:58:49.625Z,7.46
2019-02-20T09:59:49.549Z,7.47
2019-02-20T10:00:49.526Z,7.53
2019-02-20T10:01:49.509Z,7.55
2019-02-20T10:02:49.511Z,7.55
2019-02-20T10:03:49.475Z,7.59
2019-02-20T10:04:49.625Z,7.59
2019-02-20T10:05:49.439Z,7.50
2019-02-20T10:06:49.439Z,7.48
2019-02-20T10:07:49.420Z,7.56
2019-02-20T10:08:49.396Z,7.61
2019-02-20T10:09:49.383Z,7.67
2019-02-20T10:10:49.379Z,7.69
2019-02-20T10:11:49.835Z,7.78
2019-02-20T10:12:49.332Z,7.81
2019-02-20T10:13:49.303Z,7.87
2019-02-20T10:14:49.297Z,7.98
2019-02-20T10:15:49.264Z,8.08
2019-02-20T10:16:49.248Z,8.16
2019-02-20T10:17:49.250Z,8.21
2019-02-20T10:18:49.218Z,8.31
2019-02-20T10:19:49.218Z,8.21
2019-02-20T10:20:49.196Z,8.24
2019-02-20T10:21:49.196Z,8.21
2019-02-20T10:22:49.185Z,8.26
2019-02-20T10:23:49.140Z,8.21
2019-02-20T10:24:49.138Z,8.20
2019-02-20T10:25:49.109Z,8.18
2019-02-20T10:26:49.088Z,8.16
2019-02-20T10:27:49.095Z,8.16
2019-02-20T10:28:49.079Z,8.20
2019-02-20T10:29:49.070Z,8.16
2019-02-20T10:30:49.025Z,8.11
2019-02-20T10:31:49.213Z,8.13
2019-02-20T10:32:48.996Z,8.17
2019-02-20T10:33:48.971Z,8.20
2019-02-20T10:34:48.987Z,8.23
2019-02-20T10:35:48.946Z,8.26
2019-02-20T10:36:48.919Z,8.24
2019-02-20T10:37:48.905Z,8.26
2019-02-20T10:38:48.881Z,8.31
2019-02-20T10:39:48.898Z,8.34
2019-02-20T10:40:48.854Z,8.39
2019-02-20T10:41:48.848Z,8.41
2019-02-20T10:42:48.831Z,8.36
2019-02-20T10:43:48.811Z,8.34
2019-02-20T10:44:48.822Z,8.31
2019-02-20T10:45:48.781Z,8.32
2019-02-20T10:46:48.758Z,8.34
2019-02-20T10:47:48.740Z,8.39
2019-02-20T10:48:48.738Z,8.44
2019-02-20T10:49:48.708Z,8.44
2019-02-20T10:50:48.722Z,8.46
2019-02-20T10:51:48.681Z,8.49
2019-02-20T10:52:48.663Z,8.45
2019-02-20T10:53:48.658Z,8.42
2019-02-20T10:54:48.632Z,8.49
2019-02-20T10:55:48.750Z,8.50
2019-02-20T10:56:48.587Z,8.53
2019-02-20T10:57:48.579Z,8.53
2019-02-20T10:58:48.552Z,8.56
2019-02-20T10:59:48.550Z,8.64
2019-02-20T11:00:48.528Z,8.69
2019-02-20T11:01:48.555Z,8.71
2019-02-20T11:02:48.492Z,8.72
2019-02-20T11:03:48.479Z,8.78
2019-02-20T11:04:50.118Z,8.78
2019-02-20T11:05:48.453Z,8.84
2019-02-20T11:06:48.436Z,8.93
2019-02-20T11:07:48.427Z,8.97
2019-02-20T11:08:48.396Z,9.00
2019-02-20T11:09:48.665Z,9.05
2019-02-20T11:10:48.361Z,8.99
2019-02-20T11:11:48.346Z,8.99
2019-02-20T11:12:50.106Z,9.02
2019-02-20T11:13:48.322Z,9.00
2019-02-20T11:14:49.026Z,9.05
2019-02-20T11:15:48.285Z,9.09
2019-02-20T11:16:48.272Z,9.11
2019-02-20T11:17:48.254Z,9.13
2019-02-20T11:18:48.246Z,9.12
2019-02-20T11:19:48.229Z,9.13
2019-02-20T11:20:48.684Z,9.11
2019-02-20T11:21:48.195Z,9.05
2019-02-20T11:22:48.630Z,9.02
2019-02-20T11:23:48.155Z,9.05
2019-02-20T11:24:48.148Z,9.13
2019-02-20T11:25:48.132Z,9.15
2019-02-20T11:26:54.661Z,9.15
2019-02-20T11:27:48.130Z,9.11
2019-02-20T11:28:48.081Z,9.05
2019-02-20T11:29:48.070Z,9.05
2019-02-20T11:30:48.102Z,9.08
2019-02-20T11:31:48.031Z,9.08
2019-02-20T11:32:48.031Z,9.13
2019-02-20T11:33:48.009Z,9.18
2019-02-20T11:34:47.978Z,9.22
2019-02-20T11:35:47.979Z,9.19
2019-02-20T11:36:49.335Z,9.18
2019-02-20T11:37:47.980Z,9.18
2019-02-20T11:38:47.915Z,9.24
2019-02-20T11:39:47.907Z,9.30
2019-02-20T11:40:47.917Z,9.33
2019-02-20T11:41:47.877Z,9.37
2019-02-20T11:42:47.858Z,9.40
2019-02-20T11:43:47.842Z,9.47
2019-02-20T11:44:47.836Z,9.55
2019-02-20T11:45:47.810Z,9.62
2019-02-20T11:46:47.792Z,9.64
2019-02-20T11:47:47.775Z,9.59
2019-02-20T11:48:47.766Z,9.63
2019-02-20T11:49:47.750Z,9.66
2019-02-20T11:50:47.761Z,9.69
2019-02-20T11:51:47.739Z,9.69
2019-02-20T11:52:47.703Z,9.72
2019-02-20T11:53:47.691Z,9.73
2019-02-20T11:54:47.672Z,9.73
2019-02-20T11:55:47.656Z,9.74
2019-02-20T11:56:47.662Z,9.82
2019-02-20T11:57:47.617Z,9.87
2019-02-20T11:58:47.598Z,9.85
2019-02-20T11:59:47.596Z,9.80
2019-02-20T12:00:47.609Z,9.76
2019-02-20T12:01:47.586Z,9.73
2019-02-20T12:02:47.538Z,9.77
2019-02-20T12:03:47.546Z,9.81
2019-02-20T12:04:47.511Z,9.87
2019-02-20T12:05:47.490Z,9.88
2019-02-20T12:06:47.504Z,9.88
2019-02-20T12:07:47.463Z,9.92
2019-02-20T12:08:47.451Z,9.94
2019-02-20T12:09:47.458Z,9.97
2019-02-20T12:10:47.428Z,10.05
2019-02-20T12:11:47.437Z,10.17
2019-02-20T12:12:47.447Z,10.23
2019-02-20T12:13:47.383Z,10.21
2019-02-20T12:14:47.363Z,10.10
2019-02-20T12:15:47.346Z,10.05
2019-02-20T12:16:47.340Z,10.03
2019-02-20T12:17:47.305Z,10.05
2019-02-20T12:18:47.331Z,10.15
2019-02-20T12:19:47.296Z,10.18
2019-02-20T12:20:47.276Z,10.17
2019-02-20T12:21:47.255Z,10.10
2019-02-20T12:22:47.245Z,10.09
2019-02-20T12:23:47.262Z,10.00
2019-02-20T12:24:47.211Z,9.94
2019-02-20T12:25:47.186Z,9.91
2019-02-20T12:26:47.190Z,9.87
2019-02-20T12:27:47.160Z,9.90
2019-02-20T12:28:47.283Z,9.91
2019-02-20T12:29:47.141Z,9.90
2019-02-20T12:30:47.123Z,9.94
2019-02-20T12:31:52.404Z,10.05
2019-02-20T12:32:47.090Z,10.06
2019-02-20T12:33:47.101Z,10.17
2019-02-20T12:34:47.057Z,10.21
2019-02-20T12:35:47.063Z,10.27
2019-02-20T12:36:47.035Z,10.23
2019-02-20T12:37:47.018Z,10.17
2019-02-20T12:38:47.008Z,10.20
2019-02-20T12:39:47.011Z,10.21
2019-02-20T12:40:46.975Z,10.15
2019-02-20T12:41:46.976Z,10.13
2019-02-20T12:42:46.931Z,10.17
2019-02-20T12:43:46.934Z,10.17
2019-02-20T12:44:46.903Z,10.18
2019-02-20T12:45:46.898Z,10.20
2019-02-20T12:46:47.803Z,10.24
2019-02-20T12:47:46.867Z,10.33
2019-02-20T12:48:46.870Z,10.34
2019-02-20T12:49:46.843Z,10.39
2019-02-20T12:50:46.815Z,10.46
2019-02-20T12:51:46.799Z,10.49
2019-02-20T12:52:46.790Z,10.57
2019-02-20T12:53:46.870Z,10.64
2019-02-20T12:54:46.767Z,10.68
2019-02-20T12:55:46.752Z,10.62
2019-02-20T12:56:46.719Z,10.61
2019-02-20T12:57:46.724Z,10.58
2019-02-20T12:58:46.704Z,10.51
2019-02-20T12:59:46.741Z,10.48
2019-02-20T13:00:46.676Z,10.49
2019-02-20T13:01:46.673Z,10.57
2019-02-20T13:02:46.644Z,10.59
2019-02-20T13:03:46.617Z,10.61
2019-02-20T13:04:46.625Z,10.68
2019-02-20T13:05:46.595Z,10.79
2019-02-20T13:06:46.576Z,10.89
2019-02-20T13:07:47.095Z,10.86
2019-02-20T13:08:46.556Z,10.76
2019-02-20T13:09:46.536Z,10.67
2019-02-20T13:10:46.549Z,10.64
2019-02-20T13:11:46.540Z,10.65
2019-02-20T13:12:46.875Z,10.64
2019-02-20T13:13:46.474Z,10.59
2019-02-20T13:14:46.459Z,10.65
2019-02-20T13:15:46.475Z,10.69